Time;durP1;ratioP1;P1;durP2;ratioP2;P2;SDS_P1;SDS_P2;PMS_P1;PMS_P2;Temp;Humidity;BMP_temperature;BMP_pressure;BME280_temperature;BME280_humidity;BME280_pressure;Samples;Min_cycle;Max_cycle;Signal;HPM_P1;HPM_P2
2024/04/14 00:01:22;;;;;;;1.58;1.35;;;;;;;22.86;46.97;100763.53;4869205;26;20011;-56
2024/04/14 00:03:33;;;;;;;1.77;1.30;;;;;;;22.86;46.95;100760.66;4866917;26;20022;-56
2024/04/14 00:05:44;;;;;;;1.55;1.30;;;;;;;22.86;47.06;100760.66;4865959;26;20556;-57
2024/04/14 00:07:54;;;;;;;1.77;1.30;;;;;;;22.87;46.89;100761.47;4864828;26;20019;-56
2024/04/14 00:10:05;;;;;;;1.45;1.25;;;;;;;22.86;47.07;100771.31;4869430;26;20016;-57
2024/04/14 00:12:15;;;;;;;2.83;1.95;;;;;;;22.86;46.98;100765.56;4866854;26;20026;-55
2024/04/14 00:14:26;;;;;;;1.42;1.20;;;;;;;22.85;47.04;100758.97;4868962;26;20008;-55
2024/04/14 00:16:36;;;;;;;1.95;1.30;;;;;;;22.86;47.31;100771.31;4864163;26;20070;-56
2024/04/14 00:18:46;;;;;;;1.80;1.40;;;;;;;22.85;47.17;100769.66;4868243;26;20048;-56
2024/04/14 00:20:57;;;;;;;1.35;1.20;;;;;;;22.85;47.28;100775.44;4863799;26;20007;-55
2024/04/14 00:23:07;;;;;;;1.67;1.50;;;;;;;22.84;46.59;100771.69;4867063;26;20015;-54
2024/04/14 00:25:18;;;;;;;2.03;1.40;;;;;;;22.85;46.26;100775.44;4866753;26;20987;-56
2024/04/14 00:27:28;;;;;;;1.52;1.20;;;;;;;22.84;45.90;100779.50;4867367;26;20019;-55
2024/04/14 00:29:38;;;;;;;1.20;1.10;;;;;;;22.84;45.20;100786.09;4869901;26;20483;-56
2024/04/14 00:31:49;;;;;;;1.65;1.35;;;;;;;22.83;44.66;100772.94;4868707;26;20018;-55
2024/04/14 00:33:59;;;;;;;1.58;1.20;;;;;;;22.83;43.67;100778.69;4865899;26;20015;-55
2024/04/14 00:36:10;;;;;;;1.10;0.95;;;;;;;22.83;42.85;100784.44;4866354;26;20023;-53
2024/04/14 00:38:20;;;;;;;1.15;1.05;;;;;;;22.83;41.18;100774.97;4864487;26;20024;-57
2024/04/14 00:40:31;;;;;;;1.27;0.90;;;;;;;22.83;40.30;100777.84;4866402;26;20012;-57
2024/04/14 00:42:42;;;;;;;1.17;0.90;;;;;;;22.82;39.17;100770.41;4865259;26;20625;-56
2024/04/14 00:44:52;;;;;;;0.82;0.80;;;;;;;22.81;38.72;100786.84;4866745;26;20027;-55
2024/04/14 00:47:03;;;;;;;1.13;0.90;;;;;;;22.80;37.64;100790.91;4863190;26;20022;-55
2024/04/14 00:49:13;;;;;;;1.15;0.88;;;;;;;22.80;36.94;100779.41;4865723;26;20356;-57
2024/04/14 00:51:24;;;;;;;0.90;0.70;;;;;;;22.81;36.93;100783.13;4870980;26;20016;-55
2024/04/14 00:53:35;;;;;;;0.90;0.80;;;;;;;22.80;36.52;100793.81;4865868;26;20019;-55
2024/04/14 00:55:45;;;;;;;0.93;0.90;;;;;;;22.80;36.33;100802.44;4866651;26;20011;-55
2024/04/14 00:57:57;;;;;;;1.40;0.90;;;;;;;22.80;36.42;100804.50;4868939;26;20091;-56
2024/04/14 01:00:09;;;;;;;1.05;0.93;;;;;;;22.80;36.26;100813.94;4868838;26;20654;-55
2024/04/14 01:02:19;;;;;;;1.00;0.90;;;;;;;22.81;36.37;100803.28;4871849;26;20012;-53
2024/04/14 01:04:29;;;;;;;1.10;1.00;;;;;;;22.80;36.14;100821.78;4868960;26;20048;-57
2024/04/14 01:06:40;;;;;;;1.02;0.90;;;;;;;22.80;36.16;100821.78;4869143;26;20055;-56
2024/04/14 01:08:50;;;;;;;0.90;0.80;;;;;;;22.80;36.12;100816.00;4869808;26;20012;-57
2024/04/14 01:11:01;;;;;;;1.83;0.90;;;;;;;22.80;36.08;100819.69;4868405;26;20012;-55
2024/04/14 01:13:11;;;;;;;1.27;0.88;;;;;;;22.79;36.16;100823.81;4867420;26;20041;-56
2024/04/14 01:15:21;;;;;;;1.38;0.88;;;;;;;22.79;36.14;100818.03;4870214;26;20011;-56
2024/04/14 01:17:32;;;;;;;1.05;0.80;;;;;;;22.80;35.96;100830.41;4869906;26;20015;-55
2024/04/14 01:19:42;;;;;;;0.80;0.80;;;;;;;22.79;36.22;100828.72;4867782;26;20022;-55
2024/04/14 01:21:53;;;;;;;1.65;0.90;;;;;;;22.79;35.91;100828.72;4869784;26;20089;-56
2024/04/14 01:24:03;;;;;;;0.80;0.80;;;;;;;22.78;36.30;100835.69;4869063;26;28701;-56
2024/04/14 01:26:14;;;;;;;1.63;0.90;;;;;;;22.78;36.00;100835.69;4868057;26;20012;-56
2024/04/14 01:28:25;;;;;;;1.40;1.00;;;;;;;22.77;36.35;100839.78;4867433;26;20030;-55
2024/04/14 01:30:35;;;;;;;1.30;0.88;;;;;;;22.77;36.02;100836.91;4868286;26;20055;-55
2024/04/14 01:32:45;;;;;;;1.45;0.88;;;;;;;22.77;36.12;100842.66;4866600;26;21649;-55
2024/04/14 01:34:56;;;;;;;1.45;0.85;;;;;;;22.77;36.01;100836.91;4869182;26;20086;-56
2024/04/14 01:37:06;;;;;;;1.10;0.90;;;;;;;22.76;36.05;100836.06;4869103;26;20088;-56
2024/04/14 01:39:17;;;;;;;1.67;1.00;;;;;;;22.76;36.10;100836.06;4868508;26;20428;-56
2024/04/14 01:41:28;;;;;;;1.10;0.85;;;;;;;22.77;36.25;100842.66;4867108;26;20008;-57
2024/04/14 01:43:38;;;;;;;1.20;0.90;;;;;;;22.76;36.27;100835.22;4868194;26;20318;-54
2024/04/14 01:45:49;;;;;;;0.90;0.80;;;;;;;22.76;36.25;100846.75;4867932;26;20023;-55
2024/04/14 01:47:59;;;;;;;1.30;0.88;;;;;;;22.77;36.38;100851.31;4869091;26;20562;-56
2024/04/14 01:50:09;;;;;;;1.15;0.93;;;;;;;22.75;36.36;100863.19;4873375;26;20130;-53
2024/04/14 01:52:20;;;;;;;1.92;1.00;;;;;;;22.76;36.16;100861.13;4867719;26;20007;-56
2024/04/14 01:54:31;;;;;;;1.58;0.95;;;;;;;22.76;36.28;100864.84;4865817;26;20012;-56
2024/04/14 01:56:41;;;;;;;1.10;0.80;;;;;;;22.76;36.31;100864.00;4865965;26;20387;-56
2024/04/14 01:58:52;;;;;;;1.13;1.02;;;;;;;22.75;36.23;100856.59;4868005;26;20015;-55
2024/04/14 02:01:02;;;;;;;2.95;0.82;;;;;;;22.74;36.01;100873.00;4868273;26;20011;-52
2024/04/14 02:03:13;;;;;;;1.25;0.73;;;;;;;22.75;36.07;100868.09;4867125;26;20018;-55
2024/04/14 02:05:23;;;;;;;1.00;0.82;;;;;;;22.74;35.82;100873.00;4867412;26;20022;-57
2024/04/14 02:07:33;;;;;;;1.70;0.85;;;;;;;22.74;36.03;100867.25;4871214;26;20023;-57
2024/04/14 02:09:44;;;;;;;1.23;0.88;;;;;;;22.74;35.74;100872.19;4870270;26;20460;-56
2024/04/14 02:11:54;;;;;;;1.77;0.93;;;;;;;22.74;35.65;100870.13;4866173;26;20047;-57
2024/04/14 02:14:05;;;;;;;1.10;0.90;;;;;;;22.73;35.68;100877.13;4871422;26;20852;-55
2024/04/14 02:16:15;;;;;;;2.15;1.00;;;;;;;22.75;35.82;100879.63;4865353;26;20015;-56
2024/04/14 02:18:26;;;;;;;1.27;0.90;;;;;;;22.74;35.90;100875.09;4869654;26;20051;-54
2024/04/14 02:20:36;;;;;;;1.20;0.75;;;;;;;22.73;35.73;100882.03;4868502;26;20019;-53
2024/04/14 02:22:47;;;;;;;1.25;0.90;;;;;;;22.73;35.73;100885.75;4870811;26;20008;-52
2024/04/14 02:24:57;;;;;;;1.75;0.90;;;;;;;22.73;35.35;100882.03;4868356;26;20520;-53
2024/04/14 02:27:07;;;;;;;1.55;0.82;;;;;;;22.72;35.72;100892.69;4871334;26;20410;-52
2024/04/14 02:29:18;;;;;;;1.33;0.95;;;;;;;22.72;35.74;100880.38;4869284;26;20581;-54
2024/04/14 02:31:28;;;;;;;2.25;0.90;;;;;;;22.73;35.56;100890.66;4867289;26;20112;-53
2024/04/14 02:33:40;;;;;;;1.67;1.20;;;;;;;22.72;35.51;100895.56;4867027;26;20008;-56
2024/04/14 02:35:58;;;;;;;1.55;0.85;;;;;;;22.72;35.72;100898.44;4868781;26;20011;-55
2024/04/14 02:38:08;;;;;;;1.20;0.90;;;;;;;22.72;35.76;100894.75;4864791;26;20093;-56
2024/04/14 02:40:19;;;;;;;1.20;0.90;;;;;;;22.71;35.84;100905.41;4882951;26;21035;-56
2024/04/14 02:42:35;;;;;;;0.90;0.75;;;;;;;22.72;35.63;100906.28;4867565;26;20023;-54
2024/04/14 02:44:46;;;;;;;1.15;0.80;;;;;;;22.72;35.57;100912.03;4866861;26;20144;-54
2024/04/14 02:46:56;;;;;;;1.75;0.90;;;;;;;22.71;35.82;100911.19;4866628;26;20084;-53
2024/04/14 02:49:06;;;;;;;1.13;0.80;;;;;;;22.70;35.68;100912.41;4869814;26;20100;-53
2024/04/14 02:51:17;;;;;;;2.15;0.80;;;;;;;22.71;35.59;100911.19;4867424;26;20019;-54
2024/04/14 02:53:29;;;;;;;1.63;0.73;;;;;;;22.71;35.75;100907.44;4868679;26;20466;-53
2024/04/14 02:55:40;;;;;;;1.38;0.88;;;;;;;22.70;35.57;100905.78;4868583;26;20015;-52
2024/04/14 02:57:51;;;;;;;1.35;0.90;;;;;;;22.70;35.67;100902.91;4865572;26;20011;-53
2024/04/14 03:00:02;;;;;;;1.45;0.93;;;;;;;22.69;35.59;100892.63;4867946;26;24147;-56
2024/04/14 03:02:12;;;;;;;1.70;0.90;;;;;;;22.69;35.59;100904.94;4868118;26;20022;-54
2024/04/14 03:04:23;;;;;;;1.20;0.73;;;;;;;22.69;35.62;100910.72;4869557;26;22327;-55
2024/04/14 03:06:33;;;;;;;1.48;0.77;;;;;;;22.70;35.72;100905.78;4868884;26;20053;-55
2024/04/14 03:08:43;;;;;;;1.15;0.88;;;;;;;22.70;35.43;100905.78;4868154;26;20088;-52
2024/04/14 03:10:55;;;;;;;1.23;0.80;;;;;;;22.69;35.71;100899.19;4867761;26;20015;-56
2024/04/14 03:13:05;;;;;;;2.40;0.80;;;;;;;22.69;35.77;100909.91;4868209;26;20080;-56
2024/04/14 03:15:15;;;;;;;1.17;0.90;;;;;;;22.68;35.58;100906.19;4869830;26;20022;-56
2024/04/14 03:17:26;;;;;;;1.00;0.60;;;;;;;22.68;35.80;100909.06;4864293;26;20023;-56
2024/04/14 03:19:36;;;;;;;1.67;0.85;;;;;;;22.69;35.59;100907.03;4867199;26;20023;-56
2024/04/14 03:21:48;;;;;;;1.77;0.80;;;;;;;22.67;35.35;100913.16;4865273;26;20043;-54
2024/04/14 03:23:59;;;;;;;1.23;0.75;;;;;;;22.68;35.74;100914.81;4866611;26;20023;-55
2024/04/14 03:26:10;;;;;;;0.82;0.60;;;;;;;22.68;35.50;100922.59;4867277;26;20027;-55
2024/04/14 03:28:25;;;;;;;1.95;0.85;;;;;;;22.68;35.58;100920.56;4870331;26;20020;-54
2024/04/14 03:30:36;;;;;;;1.08;0.75;;;;;;;22.68;35.62;100922.59;4868560;26;20054;-53
2024/04/14 03:32:46;;;;;;;0.70;0.70;;;;;;;22.68;35.63;100928.34;4866750;26;20019;-54
2024/04/14 03:34:57;;;;;;;1.27;0.70;;;;;;;22.68;35.74;100931.22;4869752;26;20056;-55
2024/04/14 03:37:08;;;;;;;1.50;0.70;;;;;;;22.68;35.74;100916.84;4866489;26;21110;-56
2024/04/14 03:39:20;;;;;;;1.02;0.80;;;;;;;22.67;35.54;100918.06;4867878;26;20636;-55
2024/04/14 03:41:30;;;;;;;0.75;0.70;;;;;;;22.67;35.36;100923.81;4868644;26;20034;-55
2024/04/14 03:43:41;;;;;;;1.65;0.80;;;;;;;22.67;35.54;100923.81;4865085;26;20012;-54
2024/04/14 03:45:51;;;;;;;2.00;1.00;;;;;;;22.66;35.80;100928.72;4869453;26;20023;-55
2024/04/14 03:48:01;;;;;;;2.22;0.88;;;;;;;22.67;35.63;100929.56;4870081;26;20092;-55
2024/04/14 03:50:12;;;;;;;1.25;0.90;;;;;;;22.66;35.67;100928.72;4868665;26;20460;-53
2024/04/14 03:52:24;;;;;;;2.10;1.08;;;;;;;22.66;35.69;100933.66;4868773;26;20015;-53
2024/04/14 03:54:34;;;;;;;1.25;0.82;;;;;;;22.66;35.54;100928.72;4866561;26;20055;-54
2024/04/14 03:56:45;;;;;;;1.63;1.10;;;;;;;22.66;35.61;100925.03;4865385;26;20014;-52
2024/04/14 03:58:55;;;;;;;1.20;0.93;;;;;;;22.65;35.72;100927.06;4868186;26;23406;-56
2024/04/14 04:01:05;;;;;;;1.00;0.57;;;;;;;22.65;35.78;100927.06;4867109;26;20482;-54
2024/04/14 04:03:16;;;;;;;1.08;0.70;;;;;;;22.64;35.46;100921.69;4865633;26;20012;-54
2024/04/14 04:05:27;;;;;;;1.45;0.77;;;;;;;22.65;35.67;100934.84;4868788;26;20011;-56
2024/04/14 04:07:37;;;;;;;1.77;1.10;;;;;;;22.65;35.77;100932.81;4865172;26;20019;-54
2024/04/14 04:09:49;;;;;;;1.05;0.82;;;;;;;22.64;35.79;100936.06;4863595;26;20056;-55
2024/04/14 04:12:03;;;;;;;1.88;0.80;;;;;;;22.65;35.85;100931.97;4869530;26;20866;-55
2024/04/14 04:14:13;;;;;;;1.60;0.90;;;;;;;22.65;35.96;100931.97;4865724;26;20008;-56
2024/04/14 04:16:23;;;;;;;1.02;0.90;;;;;;;22.64;36.08;100928.28;4868254;26;20132;-57
2024/04/14 04:18:35;;;;;;;2.08;1.00;;;;;;;22.63;36.10;100928.66;4882050;26;20014;-56
2024/04/14 04:20:55;;;;;;;1.40;1.00;;;;;;;22.64;36.02;100930.31;4865817;26;20019;-55
2024/04/14 04:23:05;;;;;;;1.17;0.80;;;;;;;22.63;35.93;100934.41;4865966;26;20018;-56
2024/04/14 04:25:16;;;;;;;1.55;0.88;;;;;;;22.63;36.01;100938.09;4870359;26;25202;-56
2024/04/14 04:27:26;;;;;;;1.92;0.93;;;;;;;22.63;36.25;100935.22;4866190;26;29485;-55
2024/04/14 04:29:37;;;;;;;1.25;1.00;;;;;;;22.63;36.29;100940.97;4866834;26;20082;-56
2024/04/14 04:31:48;;;;;;;1.58;0.73;;;;;;;22.64;36.40;100944.72;4865622;26;20000;-56
2024/04/14 04:33:58;;;;;;;1.45;0.80;;;;;;;22.63;36.41;100945.94;4864787;26;20036;-54
2024/04/14 04:36:11;;;;;;;1.02;0.82;;;;;;;22.63;36.26;100940.16;4870154;26;26279;-53
2024/04/14 04:38:25;;;;;;;1.73;0.98;;;;;;;22.64;36.26;100947.59;4867316;26;20081;-55
2024/04/14 04:40:36;;;;;;;1.10;0.70;;;;;;;22.64;36.32;100944.72;4863012;26;20003;-56
2024/04/14 04:42:47;;;;;;;1.35;1.00;;;;;;;22.62;36.34;100950.84;4868440;26;20022;-56
2024/04/14 04:44:57;;;;;;;1.50;0.73;;;;;;;22.63;36.27;100957.44;4868059;26;20012;-56
2024/04/14 04:47:08;;;;;;;2.10;0.95;;;;;;;22.62;36.33;100952.88;4868577;26;20392;-56
2024/04/14 04:49:18;;;;;;;1.23;0.90;;;;;;;22.61;36.15;100949.16;4867522;26;20019;-57
2024/04/14 04:51:29;;;;;;;1.63;0.90;;;;;;;22.60;36.47;100953.25;4868214;26;20038;-56
2024/04/14 04:53:39;;;;;;;1.10;0.90;;;;;;;22.62;36.35;100950.84;4865343;26;20019;-56
2024/04/14 04:55:50;;;;;;;1.80;1.00;;;;;;;22.61;36.66;100956.97;4870033;26;20082;-55
2024/04/14 04:58:00;;;;;;;1.17;0.90;;;;;;;22.62;36.89;100959.47;4867490;26;20644;-55
2024/04/14 05:00:11;;;;;;;1.67;0.90;;;;;;;22.60;36.62;100953.25;4865415;26;20012;-54
2024/04/14 05:02:22;;;;;;;1.98;1.10;;;;;;;22.61;36.89;100959.84;4864672;26;20008;-56
2024/04/14 05:04:33;;;;;;;1.80;0.93;;;;;;;22.60;36.60;100961.03;4868295;26;20011;-55
2024/04/14 05:06:43;;;;;;;1.88;0.93;;;;;;;22.60;36.78;100956.13;4865609;26;20012;-56
2024/04/14 05:08:54;;;;;;;1.60;0.90;;;;;;;22.60;37.33;100961.88;4864624;26;20345;-57
2024/04/14 05:11:04;;;;;;;2.15;0.95;;;;;;;22.61;36.90;100971.34;4864633;26;20008;-55
2024/04/14 05:13:15;;;;;;;3.30;1.08;;;;;;;22.60;37.10;100972.53;4866262;26;20351;-56
2024/04/14 05:15:25;;;;;;;1.60;0.90;;;;;;;22.60;37.27;100975.41;4866328;26;20084;-55
2024/04/14 05:17:36;;;;;;;1.65;0.98;;;;;;;22.60;37.25;100976.25;4865468;26;20084;-53
2024/04/14 05:19:46;;;;;;;1.30;0.95;;;;;;;22.59;37.25;100983.22;4867379;26;20012;-56
2024/04/14 05:21:56;;;;;;;3.05;1.10;;;;;;;22.60;37.28;100984.88;4865643;26;20022;-56
2024/04/14 05:24:07;;;;;;;1.33;1.10;;;;;;;22.60;37.35;100982.00;4865150;26;21299;-56
2024/04/14 05:26:17;;;;;;;2.53;1.00;;;;;;;22.60;37.55;100992.69;4864792;26;20020;-57
2024/04/14 05:28:28;;;;;;;1.63;1.00;;;;;;;22.60;37.59;100995.56;4863448;26;20019;-55
2024/04/14 05:30:39;;;;;;;1.92;1.10;;;;;;;22.59;37.51;101000.50;4879482;26;20007;-57
2024/04/14 05:32:52;;;;;;;2.10;1.00;;;;;;;22.59;37.72;100986.09;4865435;26;20008;-55
2024/04/14 05:35:03;;;;;;;0.90;0.90;;;;;;;22.57;37.68;100987.66;4868212;26;20018;-54
2024/04/14 05:37:13;;;;;;;1.88;1.10;;;;;;;22.57;37.75;101005.78;4866813;26;20011;-53
2024/04/14 05:39:24;;;;;;;2.85;1.13;;;;;;;22.58;37.53;101006.63;4867933;26;23082;-55
2024/04/14 05:41:34;;;;;;;1.58;1.20;;;;;;;22.57;38.14;101014.41;4870305;26;20019;-54
2024/04/14 05:43:44;;;;;;;1.98;1.00;;;;;;;22.57;37.92;101023.03;4868912;26;20019;-55
2024/04/14 05:45:55;;;;;;;2.08;1.10;;;;;;;22.57;37.89;101014.41;4866747;26;20508;-56
2024/04/14 05:48:06;;;;;;;2.40;1.27;;;;;;;22.57;37.92;101022.19;4867061;26;20035;-55
2024/04/14 05:50:16;;;;;;;1.42;0.93;;;;;;;22.56;37.99;101027.13;4868386;26;20011;-55
2024/04/14 05:52:27;;;;;;;1.65;1.02;;;;;;;22.57;37.99;101027.94;4866822;26;20020;-55
2024/04/14 05:54:37;;;;;;;1.70;1.00;;;;;;;22.57;37.91;101033.69;4867054;26;20014;-55
2024/04/14 05:56:48;;;;;;;2.38;1.20;;;;;;;22.56;38.45;101023.41;4868342;26;20106;-55
2024/04/14 05:58:58;;;;;;;2.08;1.05;;;;;;;22.56;38.25;101035.75;4869459;26;20012;-56
2024/04/14 06:01:09;;;;;;;1.20;0.90;;;;;;;22.54;38.37;101032.41;4867237;26;20421;-57
2024/04/14 06:03:19;;;;;;;1.67;1.13;;;;;;;22.54;39.64;101029.53;4866283;26;20019;-56
2024/04/14 06:05:29;;;;;;;1.83;1.10;;;;;;;22.54;39.88;101040.19;4871067;26;20019;-57
2024/04/14 06:07:40;;;;;;;2.20;0.90;;;;;;;22.52;39.73;101036.84;4867104;26;20019;-53
2024/04/14 06:09:50;;;;;;;1.73;0.90;;;;;;;22.52;40.35;101033.97;4872377;26;20003;-57
2024/04/14 06:12:01;;;;;;;2.58;0.98;;;;;;;22.52;40.13;101036.84;4866211;26;20356;-55
2024/04/14 06:14:11;;;;;;;2.15;1.20;;;;;;;22.52;38.52;101042.59;4867094;26;20018;-56
2024/04/14 06:16:21;;;;;;;2.15;1.08;;;;;;;22.51;39.15;101044.63;4868682;26;20007;-57
2024/04/14 06:18:33;;;;;;;1.52;0.98;;;;;;;22.50;39.24;101042.13;4867274;26;20008;-56
2024/04/14 06:20:43;;;;;;;2.10;1.00;;;;;;;22.51;39.27;101046.66;4868250;26;20012;-55
2024/04/14 06:22:54;;;;;;;1.50;1.00;;;;;;;22.50;39.75;101051.56;4868183;26;20036;-56
2024/04/14 06:25:04;;;;;;;2.33;0.98;;;;;;;22.49;39.44;101037.56;4866077;26;20008;-56
2024/04/14 06:27:15;;;;;;;2.28;1.20;;;;;;;22.49;38.72;101040.44;4865002;26;20017;-57
2024/04/14 06:29:25;;;;;;;3.28;1.10;;;;;;;22.49;40.11;101049.06;4867656;26;20043;-57
2024/04/14 06:31:35;;;;;;;2.55;1.10;;;;;;;22.47;40.32;101046.56;4868493;26;20018;-57
2024/04/14 06:33:46;;;;;;;2.17;1.05;;;;;;;22.47;39.39;101045.75;4866950;26;20028;-57
2024/04/14 06:35:57;;;;;;;2.17;1.10;;;;;;;22.47;39.73;101052.31;4868053;26;20004;-53
2024/04/14 06:38:09;;;;;;;1.90;0.95;;;;;;;22.50;38.86;101048.69;4868073;26;20004;-57
2024/04/14 06:40:19;;;;;;;2.45;1.00;;;;;;;22.50;38.53;101060.19;4867601;26;20573;-56
2024/04/14 06:42:29;;;;;;;2.70;0.93;;;;;;;22.54;38.60;101068.97;4869288;26;20008;-54
2024/04/14 06:44:40;;;;;;;1.00;0.80;;;;;;;22.59;38.52;101062.94;4869072;26;20015;-55
2024/04/14 06:46:50;;;;;;;1.55;0.90;;;;;;;22.55;38.43;101059.97;4865657;26;20007;-57
2024/04/14 06:49:01;;;;;;;2.05;0.90;;;;;;;22.53;39.16;101056.66;4867783;26;20019;-55
2024/04/14 06:51:11;;;;;;;2.22;1.02;;;;;;;22.51;39.97;101046.66;4867144;26;20008;-56
2024/04/14 06:53:22;;;;;;;1.35;0.90;;;;;;;22.49;40.41;101052.78;4865580;26;20472;-56
2024/04/14 06:55:32;;;;;;;2.13;1.10;;;;;;;22.48;39.74;101058.91;4866915;26;20065;-55
2024/04/14 06:57:43;;;;;;;1.02;0.90;;;;;;;22.46;39.87;101061.31;4870449;26;20000;-57
2024/04/14 06:59:53;;;;;;;1.95;1.00;;;;;;;22.46;39.65;101064.19;4867003;26;20011;-56
2024/04/14 07:02:04;;;;;;;1.83;0.90;;;;;;;22.46;39.64;101062.16;4868100;26;20018;-56
2024/04/14 07:04:14;;;;;;;1.58;0.90;;;;;;;22.46;40.12;101061.31;4867541;26;20018;-53
2024/04/14 07:06:24;;;;;;;1.75;1.02;;;;;;;22.45;39.29;101069.13;4869215;26;20508;-56
2024/04/14 07:08:35;;;;;;;2.05;1.13;;;;;;;22.45;39.47;101068.28;4866563;26;20485;-53
2024/04/14 07:10:46;;;;;;;2.17;1.02;;;;;;;22.45;39.76;101065.41;4866874;26;20495;-57
2024/04/14 07:12:56;;;;;;;1.10;0.80;;;;;;;22.45;38.80;101065.41;4874112;26;20003;-55
2024/04/14 07:15:07;;;;;;;3.30;1.00;;;;;;;22.43;39.39;101067.81;4871547;26;20012;-55
2024/04/14 07:17:17;;;;;;;1.13;0.77;;;;;;;22.44;39.48;101081.00;4868065;26;20022;-56
2024/04/14 07:19:27;;;;;;;1.77;0.93;;;;;;;22.44;39.68;101081.00;4864447;26;20018;-55
2024/04/14 07:21:41;;;;;;;1.75;1.00;;;;;;;22.42;39.69;101069.03;4866798;26;20004;-57
2024/04/14 07:23:51;;;;;;;1.52;0.90;;;;;;;22.44;39.24;101078.13;4865920;26;20121;-54
2024/04/14 07:26:01;;;;;;;1.80;0.80;;;;;;;22.43;39.74;101073.56;4865920;26;20053;-56
2024/04/14 07:28:12;;;;;;;1.85;0.85;;;;;;;22.41;39.17;101073.94;4869933;26;20010;-55
2024/04/14 07:30:22;;;;;;;2.90;1.00;;;;;;;22.43;39.25;101074.41;4867136;26;20365;-56
2024/04/14 07:32:32;;;;;;;1.33;0.75;;;;;;;22.42;40.26;101077.66;4867753;26;20098;-55
2024/04/14 07:34:43;;;;;;;2.45;1.13;;;;;;;22.41;39.78;101078.84;4865228;26;20089;-55
2024/04/14 07:36:53;;;;;;;1.45;0.90;;;;;;;22.40;39.47;101080.06;4866424;26;20004;-56
2024/04/14 07:39:04;;;;;;;1.88;0.90;;;;;;;22.40;38.70;101075.16;4867563;26;20938;-54
2024/04/14 07:41:14;;;;;;;1.40;0.80;;;;;;;22.41;38.18;101075.97;4866961;26;20004;-54
2024/04/14 07:43:25;;;;;;;1.40;0.98;;;;;;;22.41;39.52;101078.84;4867713;26;20012;-56
2024/04/14 07:45:35;;;;;;;1.77;0.80;;;;;;;22.39;38.50;101081.25;4867138;26;20003;-55
2024/04/14 07:47:45;;;;;;;1.33;0.90;;;;;;;22.40;39.36;101080.91;4865797;26;20076;-56
2024/04/14 07:49:56;;;;;;;1.75;0.68;;;;;;;22.39;39.42;101089.91;4866272;26;20465;-57
2024/04/14 07:52:06;;;;;;;1.38;0.82;;;;;;;22.39;39.59;101095.66;4867100;26;20011;-57
2024/04/14 07:54:16;;;;;;;1.40;0.80;;;;;;;22.41;39.27;101096.09;4867701;26;20032;-57
2024/04/14 07:56:27;;;;;;;1.30;0.90;;;;;;;22.41;39.03;101087.47;4866899;26;20020;-58
2024/04/14 07:58:37;;;;;;;1.63;1.00;;;;;;;22.43;38.81;101096.56;4864462;26;20007;-57
2024/04/14 08:00:48;;;;;;;1.55;0.95;;;;;;;22.45;38.45;101099.91;4866433;26;20081;-57
2024/04/14 08:02:58;;;;;;;1.80;0.93;;;;;;;22.45;37.87;101100.78;4866627;26;20019;-57
2024/04/14 08:05:08;;;;;;;2.45;1.10;;;;;;;22.46;37.97;101093.81;4865247;26;20022;-57
2024/04/14 08:07:19;;;;;;;1.67;0.85;;;;;;;22.47;38.24;101088.91;4867080;26;20018;-57
2024/04/14 08:09:29;;;;;;;1.70;1.08;;;;;;;22.48;38.08;101093.44;4865265;26;20095;-56
2024/04/14 08:11:40;;;;;;;1.58;0.90;;;;;;;22.48;38.00;101102.91;4867204;26;20012;-56
2024/04/14 08:13:50;;;;;;;1.50;0.90;;;;;;;22.48;37.95;101099.19;4863116;26;20355;-56
2024/04/14 08:16:00;;;;;;;1.75;0.88;;;;;;;22.48;38.09;101104.94;4865600;26;20011;-57
2024/04/14 08:18:11;;;;;;;1.65;0.98;;;;;;;22.48;37.35;101100.03;4865973;26;20028;-57
2024/04/14 08:20:21;;;;;;;2.10;0.80;;;;;;;22.49;39.36;101112.34;4864995;26;20011;-57
2024/04/14 08:22:32;;;;;;;1.70;0.80;;;;;;;22.49;39.72;101118.09;4870027;26;20084;-56
2024/04/14 08:24:42;;;;;;;1.00;0.60;;;;;;;22.48;38.50;101119.31;4863970;26;20414;-56
2024/04/14 08:26:52;;;;;;;1.30;0.70;;;;;;;22.49;39.83;101120.97;4865400;26;20081;-57
2024/04/14 08:29:03;;;;;;;1.50;0.80;;;;;;;22.48;40.08;101116.44;4864591;26;20018;-57
2024/04/14 08:31:13;;;;;;;1.27;0.68;;;;;;;22.48;40.71;101114.41;4868798;26;25286;-58
2024/04/14 08:33:24;;;;;;;1.25;0.70;;;;;;;22.49;40.21;101120.97;4865237;26;20020;-58
2024/04/14 08:35:34;;;;;;;1.25;0.77;;;;;;;22.48;39.43;101116.44;4866910;26;20601;-57
2024/04/14 08:37:44;;;;;;;1.63;0.80;;;;;;;22.48;39.96;101119.31;4863868;26;20028;-57
2024/04/14 08:39:55;;;;;;;0.63;0.60;;;;;;;22.49;40.46;101123.84;4863282;26;20019;-57
2024/04/14 08:42:09;;;;;;;1.77;0.70;;;;;;;22.49;39.59;101123.84;4865455;26;20485;-56
2024/04/14 08:44:20;;;;;;;0.85;0.70;;;;;;;22.49;39.19;101118.09;4866160;26;21887;-55
2024/04/14 08:46:32;;;;;;;1.17;0.50;;;;;;;22.48;39.24;101125.91;4865425;26;20016;-56
2024/04/14 08:48:47;;;;;;;1.65;0.70;;;;;;;22.49;39.99;101116.06;4868644;26;20080;-57
2024/04/14 08:50:59;;;;;;;1.50;0.60;;;;;;;22.49;40.59;101132.47;4864234;26;20755;-57
2024/04/14 08:53:12;;;;;;;1.92;0.60;;;;;;;22.48;40.83;101123.03;4867228;26;20015;-57
2024/04/14 08:55:22;;;;;;;1.00;0.50;;;;;;;22.49;40.21;101127.56;4880172;26;20007;-58
2024/04/14 08:57:33;;;;;;;0.70;0.55;;;;;;;22.50;40.28;101131.31;4865444;26;20360;-57
2024/04/14 08:59:48;;;;;;;1.70;0.70;;;;;;;22.49;39.78;101126.72;4865803;26;20023;-57
2024/04/14 09:02:01;;;;;;;1.25;0.60;;;;;;;22.51;40.01;101132.97;4866510;26;20145;-57
2024/04/14 09:04:13;;;;;;;1.27;0.70;;;;;;;22.49;39.97;101129.63;4867795;26;20019;-57
2024/04/14 09:06:26;;;;;;;0.93;0.50;;;;;;;22.50;40.83;101134.19;4864205;26;20572;-57
2024/04/14 09:08:37;;;;;;;1.58;0.50;;;;;;;22.49;40.43;101144.84;4866802;26;20022;-56
2024/04/14 09:10:47;;;;;;;0.88;0.50;;;;;;;22.50;39.55;101148.56;4865771;26;20012;-56
2024/04/14 09:12:58;;;;;;;0.98;0.50;;;;;;;22.50;39.18;101148.56;4868263;26;20012;-56
2024/04/14 09:15:08;;;;;;;1.45;0.50;;;;;;;22.50;40.07;101145.69;4867300;26;20027;-56
2024/04/14 09:17:21;;;;;;;1.20;0.50;;;;;;;22.49;38.81;101141.97;4870594;26;20024;-56
2024/04/14 09:19:36;;;;;;;1.80;0.60;;;;;;;22.50;38.64;101154.31;4867797;26;20011;-57
2024/04/14 09:21:47;;;;;;;1.17;0.60;;;;;;;22.50;38.55;101149.38;4868041;26;21057;-57
2024/04/14 09:23:57;;;;;;;0.80;0.50;;;;;;;22.50;39.23;101142.81;4870435;26;20088;-57
2024/04/14 09:26:07;;;;;;;1.10;0.70;;;;;;;22.50;37.99;101148.56;4870775;26;20052;-57
2024/04/14 09:28:18;;;;;;;0.60;0.50;;;;;;;22.50;37.56;101157.19;4867196;26;20040;-56
2024/04/14 09:30:28;;;;;;;0.82;0.45;;;;;;;22.51;38.46;101155.97;4868273;26;20822;-57
2024/04/14 09:32:39;;;;;;;1.20;0.50;;;;;;;22.51;38.52;101145.31;4868174;26;20012;-56
2024/04/14 09:34:49;;;;;;;1.55;0.60;;;;;;;22.50;38.23;101137.88;4867442;26;20012;-57
2024/04/14 09:37:00;;;;;;;0.95;0.60;;;;;;;22.50;37.07;101142.81;4868637;26;20018;-57
2024/04/14 09:39:11;;;;;;;2.03;0.60;;;;;;;22.50;37.16;101145.69;4868461;26;20021;-57
2024/04/14 09:41:22;;;;;;;1.73;0.60;;;;;;;22.50;37.38;101143.63;4867509;26;20643;-56
2024/04/14 09:43:34;;;;;;;0.90;0.60;;;;;;;22.50;37.24;101148.56;4867524;26;20024;-57
2024/04/14 09:45:46;;;;;;;0.73;0.50;;;;;;;22.51;37.86;101153.09;4870113;26;20018;-57
2024/04/14 09:47:58;;;;;;;0.88;0.50;;;;;;;22.50;38.00;101155.13;4867606;26;20096;-57
2024/04/14 09:50:09;;;;;;;0.50;0.40;;;;;;;22.52;38.00;101157.69;4869338;26;20016;-56
2024/04/14 09:52:22;;;;;;;0.95;0.50;;;;;;;22.53;38.68;101156.50;4867284;26;20368;-57
2024/04/14 09:54:34;;;;;;;0.98;0.50;;;;;;;22.52;38.52;101158.53;4869078;26;20026;-57
2024/04/14 09:56:44;;;;;;;1.50;0.70;;;;;;;22.53;37.93;101159.38;4867923;26;20645;-57
2024/04/14 09:58:55;;;;;;;1.08;0.50;;;;;;;22.52;38.42;101158.53;4864539;26;20007;-57
2024/04/14 10:01:13;;;;;;;0.85;0.50;;;;;;;22.54;38.41;101152.41;4868733;26;20044;-57
2024/04/14 10:03:26;;;;;;;0.80;0.50;;;;;;;22.54;39.50;101153.25;4866242;26;20004;-57
2024/04/14 10:05:38;;;;;;;0.73;0.50;;;;;;;22.54;39.06;101156.13;4865751;26;20869;-57
2024/04/14 10:07:49;;;;;;;1.58;0.60;;;;;;;22.54;38.96;101146.66;4871219;26;20007;-56